Latest Weather Observations for Longerenong

IDV60801

Issued at 1:31 am EST Monday 27 April 2015 (issued every 30 minutes, with the page automatically refreshed every 10 minutes)

About weather observations | Map of weather stations | Latest weather observations for VIC | Other Formats
Station Details ID: 079028 Name: LONGERENONG Lat: -36.67 Lon: 142.30 Height: 133.0 m
Data from the previous 72 hours. | See also: Recent months at Longerenong
Date/Time
EST
Temp
°C
App
Temp
°C
Dew
Point
Rel
Hum
%
Delta-T
°C
Wind Press
QNH
hPa
Press
MSL
hPa
Rain
since 9 am
mm
Dir
 
Spd
km/h
Gust
km/h
Spd
kts
Gust
kts
27/01:30am 9.8 - - - - WSW 15 22 8 12 - - 0.0
27/01:00am 9.7 - - - - WSW 13 17 7 9 - - 0.0
27/12:30am 9.9 - - - - WSW 17 20 9 11 - - 0.0
27/12:00am 9.6 - - - - SW 7 11 4 6 - - 0.0
 
Date/Time
EST
Temp
°C
App
Temp
°C
Dew
Point
Rel
Hum
%
Delta-T
°C
Wind Press
QNH
hPa
Press
MSL
hPa
Rain
since 9 am
mm
Dir
 
Spd
km/h
Gust
km/h
Spd
kts
Gust
kts
26/11:30pm 10.1 - - - - SW 6 11 3 6 - - 0.0
26/11:00pm 10.7 - - - - SW 7 11 4 6 - - 0.0
26/10:30pm 10.5 - - - - WSW 11 15 6 8 - - 0.0
26/10:00pm 11.2 - - - - SW 15 22 8 12 - - 0.0
26/09:30pm 11.0 - - - - SW 17 20 9 11 - - 0.0
26/09:00pm 11.5 - - - - WSW 15 20 8 11 - - 0.0
26/08:30pm 11.6 - - - - SW 17 24 9 13 - - 0.0
26/08:00pm 11.8 - - - - SSW 11 15 6 8 - - 0.0
26/07:30pm 11.8 - - - - SSW 15 20 8 11 - - 0.0
26/07:00pm 12.2 - - - - SW 22 32 12 17 - - 0.0
26/06:30pm 12.6 - - - - SW 19 26 10 14 - - 0.0
26/06:00pm 12.9 - - - - SW 17 24 9 13 - - 0.0
26/05:30pm 13.1 - - - - SW 17 24 9 13 - - 0.0
26/05:00pm 13.3 - - - - SW 24 33 13 18 - - 0.0
26/04:30pm 13.6 - - - - SW 22 30 12 16 - - 0.0
26/04:00pm 13.9 - - - - SSW 28 35 15 19 - - 0.0
26/03:30pm 14.1 - - - - SSW 28 37 15 20 - - 0.0
26/03:00pm 14.3 - - - - SSW 28 39 15 21 - - 0.0
26/02:30pm 15.9 - - - - SW 28 39 15 21 - - 0.0
26/02:00pm 15.5 - - - - SW 28 37 15 20 - - 0.0
26/01:30pm 14.0 - - - - SW 26 39 14 21 - - 0.0
26/01:00pm 14.3 - - - - SSW 28 37 15 20 - - 0.0
26/12:30pm 13.9 - - - - SSW 24 33 13 18 - - 0.0
26/12:00pm 13.9 - - - - SSW 22 33 12 18 - - 0.0
26/11:30am 14.2 - - - - SSW 30 39 16 21 - - 0.0
26/11:00am 13.0 - - - - SSW 24 33 13 18 - - 0.0
26/10:30am 12.9 - - - - SSW 24 35 13 19 - - 0.0
26/10:00am 12.8 - - - - SSW 24 35 13 19 - - 0.0
26/09:30am 11.1 - - - - SSW 22 30 12 16 - - 0.0
26/09:00am 10.0 - - - - SSW 24 33 13 18 - - 0.2
26/08:30am 9.0 - - - - SW 15 19 8 10 - - 0.2
26/08:00am 7.5 - - - - SW 13 17 7 9 - - 0.2
26/07:30am 6.8 - - - - SW 13 15 7 8 - - 0.2
26/07:00am 6.5 - - - - SW 15 19 8 10 - - 0.2
26/06:30am 6.9 - - - - SW 20 24 11 13 - - 0.2
26/06:00am 7.3 - - - - SW 19 24 10 13 - - 0.2
26/05:30am 7.7 - - - - SW 15 20 8 11 - - 0.2
26/05:00am 8.1 - - - - SW 13 15 7 8 - - 0.2
26/04:30am 8.9 - - - - SW 15 22 8 12 - - 0.2
26/04:00am 8.7 - - - - SW 11 15 6 8 - - 0.2
26/03:30am 9.1 - - - - SW 15 20 8 11 - - 0.2
26/03:00am 9.3 - - - - SW 15 20 8 11 - - 0.2
26/02:30am 9.4 - - - - SW 13 19 7 10 - - 0.2
26/02:00am 9.7 - - - - SW 17 22 9 12 - - 0.2
26/01:30am 9.6 - - - - SW 15 20 8 11 - - 0.2
26/01:00am 8.9 - - - - SW 15 20 8 11 - - 0.2
26/12:30am 9.4 - - - - SW 19 26 10 14 - - 0.2
26/12:00am 9.5 - - - - SSW 17 20 9 11 - - 0.2
 
Date/Time
EST
Temp
°C
App
Temp
°C
Dew
Point
Rel
Hum
%
Delta-T
°C
Wind Press
QNH
hPa
Press
MSL
hPa
Rain
since 9 am
mm
Dir
 
Spd
km/h
Gust
km/h
Spd
kts
Gust
kts
25/11:30pm 10.4 - - - - SSW 20 28 11 15 - - 0.2
25/11:00pm 9.4 - - - - SSW 17 22 9 12 - - 0.2
25/10:30pm 9.9 - - - - SSW 17 22 9 12 - - 0.2
25/10:00pm 10.8 - - - - SSW 20 24 11 13 - - 0.2
25/09:30pm 11.2 - - - - S 19 22 10 12 - - 0.2
25/09:00pm 11.4 - - - - SSW 19 26 10 14 - - 0.2
25/08:30pm 11.3 - - - - S 19 26 10 14 - - 0.2
25/08:00pm 12.0 - - - - SSW 17 24 9 13 - - 0.2
25/07:30pm 12.4 - - - - SSW 19 26 10 14 - - 0.2
25/07:00pm 12.7 - - - - S 20 28 11 15 - - 0.2
25/06:30pm 13.2 - - - - SSW 17 22 9 12 - - 0.0
25/06:00pm 13.4 - - - - SSW 17 20 9 11 - - 0.0
25/05:30pm 14.3 - - - - SSW 19 24 10 13 - - 0.0
25/05:00pm 14.6 - - - - SSW 20 28 11 15 - - 0.0
25/04:30pm 15.0 - - - - SSW 24 32 13 17 - - 0.0
25/04:00pm 15.5 - - - - SSW 20 28 11 15 - - 0.0
25/03:30pm 15.5 - - - - S 20 28 11 15 - - 0.0
25/03:00pm 15.6 - - - - SSW 22 30 12 16 - - 0.0
25/02:30pm 14.6 - - - - S 13 17 7 9 - - 0.0
25/02:00pm 15.3 - - - - S 22 30 12 16 - - 0.0
25/01:30pm 15.5 - - - - SSW 22 32 12 17 - - 0.0
25/01:00pm 14.9 - - - - S 22 30 12 16 - - 0.0
25/12:30pm 14.9 - - - - S 22 30 12 16 - - 0.0
25/12:00pm 14.4 - - - - SSW 20 32 11 17 - - 0.0
25/11:30am 13.6 - - - - SSW 20 28 11 15 - - 0.0
25/11:00am 12.9 - - - - SSW 17 22 9 12 - - 0.0
25/10:30am 10.7 - - - - S 11 13 6 7 - - 0.0
25/10:00am 10.4 - - - - S 13 15 7 8 - - 0.0
25/09:30am 10.4 - - - - SSW 17 19 9 10 - - 0.0
25/09:00am 8.8 - - - - SSW 13 17 7 9 - - 4.6
25/08:30am 6.5 - - - - SSW 7 11 4 6 - - 4.6
25/08:00am 4.8 - - - - SW 6 9 3 5 - - 4.6
25/07:30am 3.8 - - - - SSW 11 15 6 8 - - 4.6
25/07:00am 3.2 - - - - SW 11 13 6 7 - - 4.6
25/06:30am 3.2 - - - - SW 9 11 5 6 - - 4.6
25/06:00am 3.1 - - - - SW 4 6 2 3 - - 4.6
25/05:30am 3.6 - - - - SW 7 7 4 4 - - 4.6
25/05:00am 3.6 - - - - SW 4 6 2 3 - - 4.6
25/04:30am 3.1 - - - - NNE 6 6 3 3 - - 4.6
25/04:00am 3.4 - - - - NNE 2 4 1 2 - - 4.6
25/03:30am 3.0 - - - - CALM 0 0 0 0 - - 4.4
25/03:00am 3.5 - - - - CALM 0 2 0 1 - - 4.4
25/02:30am 4.3 - - - - CALM 0 0 0 0 - - 4.4
25/02:00am 5.3 - - - - NNW 6 6 3 3 - - 4.4
25/01:30am 4.9 - - - - NNW 7 9 4 5 - - 4.4
25/01:00am 5.3 - - - - NW 6 7 3 4 - - 4.4
25/12:30am 5.5 - - - - N 9 11 5 6 - - 4.4
25/12:00am 7.1 - - - - N 6 9 3 5 - - 4.4
 
Date/Time
EST
Temp
°C
App
Temp
°C
Dew
Point
Rel
Hum
%
Delta-T
°C
Wind Press
QNH
hPa
Press
MSL
hPa
Rain
since 9 am
mm
Dir
 
Spd
km/h
Gust
km/h
Spd
kts
Gust
kts
24/11:30pm 7.7 - - - - N 6 7 3 4 - - 4.4
24/11:00pm 7.8 - - - - NW 4 6 2 3 - - 4.4
24/10:30pm 8.1 - - - - NNW 6 6 3 3 - - 4.4
24/10:00pm 9.0 - - - - NNW 6 7 3 4 - - 4.4
24/09:30pm 9.6 - - - - WNW 6 9 3 5 - - 4.4
24/09:00pm 10.4 - - - - WSW 7 9 4 5 - - 4.4
24/08:30pm 10.4 - - - - WNW 7 7 4 4 - - 4.4
24/08:00pm 10.3 - - - - NW 6 7 3 4 - - 4.4
24/07:30pm 10.4 - - - - W 7 9 4 5 - - 4.4
24/07:00pm 11.1 - - - - WSW 9 13 5 7 - - 4.4
24/06:30pm 11.4 - - - - WSW 13 15 7 8 - - 4.4
24/06:00pm 11.7 - - - - WSW 15 20 8 11 - - 4.4
24/05:30pm 11.9 - - - - WSW 15 22 8 12 - - 4.4
24/05:00pm 11.9 - - - - WSW 24 35 13 19 - - 4.4
24/04:30pm 12.6 - - - - W 33 50 18 27 - - 4.4
24/04:07pm 14.6 - - - - WNW 28 46 15 25 - - 3.8
24/04:00pm 14.6 - - - - WNW 22 26 12 14 - - 3.6
24/03:30pm 14.0 - - - - WNW 37 52 20 28 - - 1.0
24/03:21pm 17.2 - - - - NW 30 54 16 29 - - 0.0
24/03:00pm 19.1 - - - - NNW 20 28 11 15 - - 0.0
24/02:30pm 19.5 - - - - NNW 17 26 9 14 - - 0.0
24/02:00pm 18.7 - - - - NW 15 20 8 11 - - 0.0
24/01:30pm 18.2 - - - - NW 15 20 8 11 - - 0.0
24/01:00pm 17.7 - - - - WNW 20 28 11 15 - - 0.0
24/12:30pm 18.2 - - - - WNW 19 28 10 15 - - 0.0
24/12:00pm 16.9 - - - - W 17 22 9 12 - - 0.0
24/11:30am 17.1 - - - - W 20 26 11 14 - - 0.0
24/11:00am 16.3 - - - - W 19 24 10 13 - - 0.0
24/10:30am 15.8 - - - - W 17 22 9 12 - - 0.0
24/10:00am 15.2 - - - - WSW 17 26 9 14 - - 0.0
24/09:30am 14.4 - - - - W 19 24 10 13 - - 0.0
24/09:00am 13.8 - - - - W 17 22 9 12 - - 0.0
24/08:30am 13.0 - - - - W 13 17 7 9 - - 0.0
24/08:00am 12.3 - - - - W 15 19 8 10 - - 0.0
24/07:30am 11.6 - - - - W 11 15 6 8 - - 0.0
24/07:00am 11.2 - - - - WNW 11 15 6 8 - - 0.0
24/06:30am 10.0 - - - - WNW 6 9 3 5 - - 0.0
24/06:00am 10.2 - - - - NW 7 9 4 5 - - 0.0
24/05:30am 9.7 - - - - WNW 9 9 5 5 - - 0.0
24/05:00am 9.6 - - - - NW 7 9 4 5 - - 0.0
24/04:30am 9.4 - - - - NW 7 11 4 6 - - 0.0
24/04:00am 9.0 - - - - NW 6 6 3 3 - - 0.0
24/03:30am 9.5 - - - - NNW 4 6 2 3 - - 0.0
24/03:00am 9.7 - - - - NW 4 6 2 3 - - 0.0
24/02:30am 10.2 - - - - NW 7 9 4 5 - - 0.0
24/02:00am 10.5 - - - - NNW 7 9 4 5 - - 0.0

Other Formats:

Comma delimited format used in spreadsheet applications
http://www.bom.gov.au/fwo/IDV60801/IDV60801.95835.axf

JavaScript Object Notation format (JSON) in row-major order
http://www.bom.gov.au/fwo/IDV60801/IDV60801.95835.json